createdAt,value
2023-01-21T16:23:11.391Z,44.40
2023-01-21T16:25:52.391Z,46.60
2023-01-21T16:28:21.645Z,43.40
2023-01-21T16:30:58.336Z,43.60
2023-01-21T16:33:29.597Z,28.50
2023-01-21T16:36:05.965Z,44.00
2023-01-21T16:38:37.520Z,40.60
2023-01-21T16:41:15.425Z,28.20
2023-01-21T16:43:57.522Z,34.20
2023-01-21T16:46:33.005Z,35.70
2023-01-21T16:49:05.014Z,32.70
2023-01-21T16:51:36.135Z,31.60
2023-01-21T16:54:19.880Z,31.00
2023-01-21T16:57:23.444Z,29.40
2023-01-21T16:59:56.028Z,31.40
2023-01-21T17:02:33.932Z,35.70
2023-01-21T17:05:08.375Z,26.90
2023-01-21T17:07:45.265Z,27.60
2023-01-21T17:10:22.123Z,28.90
2023-01-21T17:12:59.382Z,41.60
2023-01-21T17:15:38.738Z,40.90
2023-01-21T17:18:17.542Z,34.40
2023-01-21T17:20:48.247Z,29.10
2023-01-21T17:23:19.472Z,30.70
2023-01-21T17:26:19.398Z,33.30
2023-01-21T17:28:53.998Z,35.80
2023-01-21T17:31:31.386Z,33.40
2023-01-21T17:34:11.196Z,31.00
2023-01-21T17:36:41.280Z,33.50
2023-01-21T17:39:11.114Z,34.90
2023-01-21T17:41:41.667Z,37.70
2023-01-21T17:44:25.683Z,50.90
2023-01-21T17:46:55.658Z,39.30
2023-01-21T17:49:26.863Z,49.20
2023-01-21T17:52:02.580Z,59.40
2023-01-21T17:54:30.987Z,63.60
2023-01-21T17:57:00.790Z,55.60
2023-01-21T17:59:35.083Z,51.90
2023-01-21T18:02:12.568Z,48.90
2023-01-21T18:04:42.495Z,44.80
2023-01-21T18:07:23.227Z,46.70
2023-01-21T18:09:52.901Z,54.80
2023-01-21T18:12:22.123Z,55.10
2023-01-21T18:14:50.571Z,47.40
2023-01-21T18:17:22.811Z,46.30
2023-01-21T18:19:52.015Z,45.90
2023-01-21T18:22:26.982Z,50.30
2023-01-21T18:24:56.219Z,47.90
2023-01-21T18:27:26.087Z,47.60
2023-01-21T18:29:54.909Z,46.30
2023-01-21T18:32:23.292Z,50.50
2023-01-21T18:34:51.690Z,52.70
2023-01-21T18:37:20.784Z,57.80
2023-01-21T18:39:49.200Z,61.70
2023-01-21T18:42:18.326Z,62.30
2023-01-21T18:44:46.818Z,57.70
2023-01-21T18:47:17.437Z,59.70
2023-01-21T18:49:49.600Z,61.70
2023-01-21T18:52:19.663Z,59.00
2023-01-21T18:54:48.231Z,58.50
2023-01-21T18:57:22.711Z,59.20
2023-01-21T18:59:51.291Z,57.80
2023-01-21T19:02:21.437Z,57.20
2023-01-21T19:04:50.154Z,56.70
2023-01-21T19:07:22.976Z,55.50
2023-01-21T19:09:51.610Z,56.70
2023-01-21T19:12:21.279Z,60.40
2023-01-21T19:14:50.279Z,64.50
2023-01-21T19:17:28.846Z,66.00
2023-01-21T19:19:57.474Z,55.60
2023-01-21T19:22:25.940Z,59.40
2023-01-21T19:24:54.285Z,59.00
2023-01-21T19:27:29.208Z,52.50
2023-01-21T19:29:58.213Z,53.60
2023-01-21T19:32:26.930Z,47.00
2023-01-21T19:34:57.821Z,46.00
2023-01-21T19:37:26.286Z,49.80
2023-01-21T19:39:55.025Z,47.20
2023-01-21T19:42:23.515Z,46.20
2023-01-21T19:44:51.959Z,50.10
2023-01-21T19:47:27.950Z,50.20
2023-01-21T19:49:56.439Z,53.00
2023-01-21T19:52:24.998Z,54.00
2023-01-21T19:54:55.089Z,46.90
2023-01-21T19:57:23.719Z,48.10
2023-01-21T19:59:53.437Z,50.80
2023-01-21T20:02:21.876Z,52.40
2023-01-21T20:04:50.301Z,51.40
2023-01-21T20:07:18.924Z,46.00
2023-01-21T20:09:47.303Z,53.50
2023-01-21T20:12:15.703Z,52.10
2023-01-21T20:14:44.069Z,55.50
2023-01-21T20:17:14.280Z,52.80
2023-01-21T20:19:42.587Z,52.30
2023-01-21T20:22:12.649Z,54.40
2023-01-21T20:24:40.972Z,55.30
2023-01-21T20:27:14.231Z,59.90
2023-01-21T20:29:49.591Z,56.00
2023-01-21T20:32:24.080Z,51.80
2023-01-21T20:34:52.506Z,50.20
2023-01-21T20:37:20.924Z,52.00
2023-01-21T20:39:49.326Z,54.90
2023-01-21T20:42:17.754Z,55.20
2023-01-21T20:44:49.663Z,59.70
2023-01-21T20:47:27.592Z,57.20
2023-01-21T20:50:24.321Z,58.10
2023-01-21T20:52:54.277Z,56.60
2023-01-21T20:55:27.289Z,58.90
2023-01-21T20:57:56.224Z,60.10
2023-01-21T21:00:28.099Z,59.20
2023-01-21T21:02:57.677Z,65.60
2023-01-21T21:05:27.903Z,62.60
2023-01-21T21:07:56.298Z,64.40
2023-01-21T21:10:32.109Z,61.60
2023-01-21T21:13:01.037Z,62.30
2023-01-21T21:15:32.031Z,63.10
2023-01-21T21:18:00.343Z,65.80
2023-01-21T21:20:32.187Z,72.00
2023-01-21T21:23:00.681Z,69.60
2023-01-21T21:25:32.163Z,77.00
2023-01-21T21:28:00.546Z,75.70
2023-01-21T21:30:32.210Z,82.20
2023-01-21T21:33:01.894Z,75.00
2023-01-21T21:35:39.843Z,73.50
2023-01-21T21:38:13.196Z,73.70
2023-01-21T21:40:42.067Z,72.80
2023-01-21T21:43:35.971Z,76.70
2023-01-21T21:46:31.234Z,82.10
2023-01-21T21:48:59.576Z,86.60
2023-01-21T21:51:27.997Z,84.70
2023-01-21T21:53:56.287Z,83.40
2023-01-21T21:56:24.607Z,76.20
2023-01-21T21:58:53.795Z,80.50
2023-01-21T22:01:25.647Z,77.00
2023-01-21T22:03:54.338Z,80.70
2023-01-21T22:06:22.729Z,78.90
2023-01-21T22:08:54.123Z,79.60
2023-01-21T22:11:24.445Z,81.70
2023-01-21T22:13:54.354Z,73.30
2023-01-21T22:16:26.214Z,80.20
2023-01-21T22:18:56.526Z,76.10
2023-01-21T22:21:32.348Z,76.20
2023-01-21T22:24:02.750Z,77.00
2023-01-21T22:26:32.551Z,76.30
2023-01-21T22:29:01.503Z,78.00
2023-01-21T22:31:32.454Z,77.50
2023-01-21T22:34:01.615Z,77.30
2023-01-21T22:36:31.325Z,76.90
2023-01-21T22:39:00.472Z,75.10
2023-01-21T22:41:28.873Z,80.90
2023-01-21T22:43:57.333Z,77.50
2023-01-21T22:46:30.285Z,74.70
2023-01-21T22:48:58.923Z,78.40
2023-01-21T22:51:28.527Z,76.70
2023-01-21T22:54:00.160Z,77.90
2023-01-21T22:56:45.311Z,77.80
2023-01-21T22:59:17.014Z,80.20
2023-01-21T23:01:45.563Z,79.90
2023-01-21T23:04:14.976Z,78.10
2023-01-21T23:06:44.798Z,85.00
2023-01-21T23:09:17.858Z,78.00
2023-01-21T23:11:46.157Z,82.00
2023-01-21T23:14:14.540Z,79.20
2023-01-21T23:16:42.839Z,73.50
2023-01-21T23:19:12.898Z,73.70
2023-01-21T23:21:41.432Z,71.70
2023-01-21T23:24:10.062Z,69.40
2023-01-21T23:26:38.565Z,68.10
2023-01-21T23:29:06.955Z,67.10
2023-01-21T23:31:35.515Z,63.20
2023-01-21T23:34:04.074Z,65.50
2023-01-21T23:36:32.425Z,67.30
2023-01-21T23:39:00.686Z,66.50
2023-01-21T23:41:29.086Z,61.90
2023-01-21T23:44:01.932Z,62.90
2023-01-21T23:46:30.576Z,60.10
2023-01-21T23:48:59.281Z,59.60
2023-01-21T23:51:27.688Z,60.50
2023-01-21T23:53:56.328Z,60.20
2023-01-21T23:56:26.742Z,59.70
2023-01-21T23:58:55.082Z,57.90
